sensor_id;sensor_type;location;lat;lon;timestamp;P1;durP1;ratioP1;P2;durP2;ratioP2
3747;SDS011;1889;50.058;8.688;2023-12-28T00:00:24;5.87;;;4.05;;
3747;SDS011;1889;50.058;8.688;2023-12-28T00:02:53;5.12;;;3.70;;
3747;SDS011;1889;50.058;8.688;2023-12-28T00:05:22;5.58;;;4.15;;
3747;SDS011;1889;50.058;8.688;2023-12-28T00:07:52;4.65;;;3.62;;
3747;SDS011;1889;50.058;8.688;2023-12-28T00:10:26;4.17;;;3.77;;
3747;SDS011;1889;50.058;8.688;2023-12-28T00:12:56;4.40;;;3.98;;
3747;SDS011;1889;50.058;8.688;2023-12-28T00:15:27;5.05;;;4.30;;
3747;SDS011;1889;50.058;8.688;2023-12-28T00:17:57;5.87;;;4.12;;
3747;SDS011;1889;50.058;8.688;2023-12-28T00:20:26;5.95;;;4.42;;
3747;SDS011;1889;50.058;8.688;2023-12-28T00:22:55;6.90;;;4.40;;
3747;SDS011;1889;50.058;8.688;2023-12-28T00:25:25;5.33;;;4.40;;
3747;SDS011;1889;50.058;8.688;2023-12-28T00:27:55;6.83;;;4.50;;
3747;SDS011;1889;50.058;8.688;2023-12-28T00:30:24;5.37;;;4.50;;
3747;SDS011;1889;50.058;8.688;2023-12-28T00:32:53;4.95;;;4.22;;
3747;SDS011;1889;50.058;8.688;2023-12-28T00:35:23;5.80;;;3.90;;
3747;SDS011;1889;50.058;8.688;2023-12-28T00:37:52;5.28;;;4.12;;
3747;SDS011;1889;50.058;8.688;2023-12-28T00:40:21;5.55;;;4.30;;
3747;SDS011;1889;50.058;8.688;2023-12-28T00:42:50;5.45;;;3.90;;
3747;SDS011;1889;50.058;8.688;2023-12-28T00:45:20;4.75;;;3.90;;
3747;SDS011;1889;50.058;8.688;2023-12-28T00:47:49;5.00;;;3.60;;
3747;SDS011;1889;50.058;8.688;2023-12-28T00:50:19;4.85;;;4.20;;
3747;SDS011;1889;50.058;8.688;2023-12-28T00:52:48;5.15;;;3.83;;
3747;SDS011;1889;50.058;8.688;2023-12-28T00:55:18;7.72;;;4.03;;
3747;SDS011;1889;50.058;8.688;2023-12-28T00:57:47;6.17;;;4.00;;
3747;SDS011;1889;50.058;8.688;2023-12-28T01:00:16;5.62;;;4.10;;
3747;SDS011;1889;50.058;8.688;2023-12-28T01:02:46;6.17;;;4.25;;
3747;SDS011;1889;50.058;8.688;2023-12-28T01:05:16;5.65;;;3.85;;
3747;SDS011;1889;50.058;8.688;2023-12-28T01:07:47;4.35;;;3.45;;
3747;SDS011;1889;50.058;8.688;2023-12-28T01:10:17;5.40;;;3.90;;
3747;SDS011;1889;50.058;8.688;2023-12-28T01:12:46;5.72;;;3.50;;
3747;SDS011;1889;50.058;8.688;2023-12-28T01:15:15;5.45;;;4.22;;
3747;SDS011;1889;50.058;8.688;2023-12-28T01:17:45;4.12;;;3.35;;
3747;SDS011;1889;50.058;8.688;2023-12-28T01:20:14;6.08;;;3.60;;
3747;SDS011;1889;50.058;8.688;2023-12-28T01:22:44;6.60;;;3.58;;
3747;SDS011;1889;50.058;8.688;2023-12-28T01:25:13;6.60;;;3.27;;
3747;SDS011;1889;50.058;8.688;2023-12-28T01:27:42;4.70;;;3.87;;
3747;SDS011;1889;50.058;8.688;2023-12-28T01:30:12;4.58;;;3.33;;
3747;SDS011;1889;50.058;8.688;2023-12-28T01:32:41;4.97;;;3.10;;
3747;SDS011;1889;50.058;8.688;2023-12-28T01:35:10;3.45;;;3.00;;
3747;SDS011;1889;50.058;8.688;2023-12-28T01:37:40;4.30;;;2.85;;
3747;SDS011;1889;50.058;8.688;2023-12-28T01:40:09;6.47;;;3.22;;
3747;SDS011;1889;50.058;8.688;2023-12-28T01:42:38;5.55;;;3.02;;
3747;SDS011;1889;50.058;8.688;2023-12-28T01:45:08;4.05;;;3.30;;
3747;SDS011;1889;50.058;8.688;2023-12-28T01:47:37;3.20;;;2.72;;
3747;SDS011;1889;50.058;8.688;2023-12-28T01:50:07;3.58;;;2.77;;
3747;SDS011;1889;50.058;8.688;2023-12-28T01:52:37;4.30;;;3.10;;
3747;SDS011;1889;50.058;8.688;2023-12-28T01:55:06;3.20;;;2.90;;
3747;SDS011;1889;50.058;8.688;2023-12-28T01:57:37;4.28;;;3.17;;
3747;SDS011;1889;50.058;8.688;2023-12-28T02:00:06;3.20;;;2.83;;
3747;SDS011;1889;50.058;8.688;2023-12-28T02:02:36;2.60;;;2.40;;
3747;SDS011;1889;50.058;8.688;2023-12-28T02:05:06;3.10;;;2.45;;
3747;SDS011;1889;50.058;8.688;2023-12-28T02:07:36;4.85;;;3.22;;
3747;SDS011;1889;50.058;8.688;2023-12-28T02:10:05;3.58;;;2.75;;
3747;SDS011;1889;50.058;8.688;2023-12-28T02:12:35;3.50;;;3.08;;
3747;SDS011;1889;50.058;8.688;2023-12-28T02:15:04;3.65;;;2.95;;
3747;SDS011;1889;50.058;8.688;2023-12-28T02:17:41;7.33;;;3.50;;
3747;SDS011;1889;50.058;8.688;2023-12-28T02:20:12;3.70;;;2.80;;
3747;SDS011;1889;50.058;8.688;2023-12-28T02:22:43;3.60;;;2.80;;
3747;SDS011;1889;50.058;8.688;2023-12-28T02:25:13;5.47;;;3.40;;
3747;SDS011;1889;50.058;8.688;2023-12-28T02:27:49;3.05;;;2.75;;
3747;SDS011;1889;50.058;8.688;2023-12-28T02:30:18;3.87;;;2.83;;
3747;SDS011;1889;50.058;8.688;2023-12-28T02:33:07;4.40;;;3.00;;
3747;SDS011;1889;50.058;8.688;2023-12-28T02:35:48;3.95;;;3.30;;
3747;SDS011;1889;50.058;8.688;2023-12-28T02:38:18;4.60;;;2.98;;
3747;SDS011;1889;50.058;8.688;2023-12-28T02:40:49;3.20;;;2.83;;
3747;SDS011;1889;50.058;8.688;2023-12-28T02:43:18;6.28;;;3.12;;
3747;SDS011;1889;50.058;8.688;2023-12-28T02:45:48;3.65;;;3.00;;
3747;SDS011;1889;50.058;8.688;2023-12-28T02:48:17;3.00;;;2.67;;
3747;SDS011;1889;50.058;8.688;2023-12-28T02:50:46;3.10;;;2.75;;
3747;SDS011;1889;50.058;8.688;2023-12-28T02:53:16;4.12;;;3.25;;
3747;SDS011;1889;50.058;8.688;2023-12-28T02:55:45;3.40;;;3.00;;
3747;SDS011;1889;50.058;8.688;2023-12-28T02:58:14;4.35;;;2.90;;
3747;SDS011;1889;50.058;8.688;2023-12-28T03:00:44;3.40;;;2.77;;
3747;SDS011;1889;50.058;8.688;2023-12-28T03:03:13;3.75;;;3.33;;
3747;SDS011;1889;50.058;8.688;2023-12-28T03:05:42;4.17;;;3.42;;
3747;SDS011;1889;50.058;8.688;2023-12-28T03:08:12;3.60;;;3.00;;
3747;SDS011;1889;50.058;8.688;2023-12-28T03:10:41;3.52;;;3.05;;
3747;SDS011;1889;50.058;8.688;2023-12-28T03:13:10;4.25;;;2.90;;
3747;SDS011;1889;50.058;8.688;2023-12-28T03:15:40;3.10;;;2.80;;
3747;SDS011;1889;50.058;8.688;2023-12-28T03:20:58;4.90;;;3.30;;
3747;SDS011;1889;50.058;8.688;2023-12-28T03:23:28;4.53;;;3.00;;
3747;SDS011;1889;50.058;8.688;2023-12-28T03:25:57;4.20;;;2.90;;
3747;SDS011;1889;50.058;8.688;2023-12-28T03:28:28;4.97;;;3.12;;
3747;SDS011;1889;50.058;8.688;2023-12-28T03:30:58;3.15;;;2.85;;
3747;SDS011;1889;50.058;8.688;2023-12-28T03:33:28;4.25;;;3.00;;
3747;SDS011;1889;50.058;8.688;2023-12-28T03:35:58;4.10;;;3.05;;
3747;SDS011;1889;50.058;8.688;2023-12-28T03:38:27;3.60;;;3.15;;
3747;SDS011;1889;50.058;8.688;2023-12-28T03:40:56;2.62;;;2.40;;
3747;SDS011;1889;50.058;8.688;2023-12-28T03:43:26;3.33;;;3.02;;
3747;SDS011;1889;50.058;8.688;2023-12-28T03:45:55;3.52;;;2.87;;
3747;SDS011;1889;50.058;8.688;2023-12-28T03:48:25;3.30;;;2.58;;
3747;SDS011;1889;50.058;8.688;2023-12-28T03:50:54;3.42;;;2.75;;
3747;SDS011;1889;50.058;8.688;2023-12-28T03:53:23;5.97;;;3.05;;
3747;SDS011;1889;50.058;8.688;2023-12-28T03:55:53;3.25;;;2.70;;
3747;SDS011;1889;50.058;8.688;2023-12-28T03:58:22;4.45;;;2.98;;
3747;SDS011;1889;50.058;8.688;2023-12-28T04:00:52;3.33;;;3.02;;
3747;SDS011;1889;50.058;8.688;2023-12-28T04:03:21;4.40;;;2.75;;
3747;SDS011;1889;50.058;8.688;2023-12-28T04:05:50;3.25;;;2.87;;
3747;SDS011;1889;50.058;8.688;2023-12-28T04:08:20;4.00;;;2.75;;
3747;SDS011;1889;50.058;8.688;2023-12-28T04:10:49;4.75;;;3.05;;
3747;SDS011;1889;50.058;8.688;2023-12-28T04:13:18;4.15;;;2.75;;
3747;SDS011;1889;50.058;8.688;2023-12-28T04:15:48;3.55;;;3.00;;
3747;SDS011;1889;50.058;8.688;2023-12-28T04:18:17;4.58;;;3.00;;
3747;SDS011;1889;50.058;8.688;2023-12-28T04:20:46;6.22;;;2.77;;
3747;SDS011;1889;50.058;8.688;2023-12-28T04:23:16;3.58;;;2.77;;
3747;SDS011;1889;50.058;8.688;2023-12-28T04:25:45;2.83;;;2.52;;
3747;SDS011;1889;50.058;8.688;2023-12-28T04:28:15;3.98;;;2.80;;
3747;SDS011;1889;50.058;8.688;2023-12-28T04:30:44;3.05;;;2.70;;
3747;SDS011;1889;50.058;8.688;2023-12-28T04:33:16;4.55;;;2.72;;
3747;SDS011;1889;50.058;8.688;2023-12-28T04:35:46;3.80;;;2.50;;
3747;SDS011;1889;50.058;8.688;2023-12-28T04:38:16;2.80;;;2.30;;
3747;SDS011;1889;50.058;8.688;2023-12-28T04:40:45;4.03;;;2.75;;
3747;SDS011;1889;50.058;8.688;2023-12-28T04:43:14;3.87;;;2.45;;
3747;SDS011;1889;50.058;8.688;2023-12-28T04:45:43;2.58;;;2.37;;
3747;SDS011;1889;50.058;8.688;2023-12-28T04:48:13;3.60;;;2.60;;
3747;SDS011;1889;50.058;8.688;2023-12-28T04:50:42;2.85;;;2.52;;
3747;SDS011;1889;50.058;8.688;2023-12-28T04:53:11;2.83;;;2.22;;
3747;SDS011;1889;50.058;8.688;2023-12-28T04:55:41;4.72;;;2.40;;
3747;SDS011;1889;50.058;8.688;2023-12-28T04:58:10;2.70;;;2.02;;
3747;SDS011;1889;50.058;8.688;2023-12-28T05:00:40;3.02;;;2.02;;
3747;SDS011;1889;50.058;8.688;2023-12-28T05:03:09;4.75;;;2.40;;
3747;SDS011;1889;50.058;8.688;2023-12-28T05:05:38;2.17;;;1.98;;
3747;SDS011;1889;50.058;8.688;2023-12-28T05:08:08;2.60;;;2.40;;
3747;SDS011;1889;50.058;8.688;2023-12-28T05:10:37;2.98;;;2.20;;
3747;SDS011;1889;50.058;8.688;2023-12-28T05:13:06;3.80;;;2.20;;
3747;SDS011;1889;50.058;8.688;2023-12-28T05:15:36;3.08;;;1.98;;
3747;SDS011;1889;50.058;8.688;2023-12-28T05:18:05;3.00;;;2.22;;
3747;SDS011;1889;50.058;8.688;2023-12-28T05:20:36;2.20;;;2.00;;
3747;SDS011;1889;50.058;8.688;2023-12-28T05:23:07;4.53;;;2.42;;
3747;SDS011;1889;50.058;8.688;2023-12-28T05:25:36;2.40;;;2.20;;
3747;SDS011;1889;50.058;8.688;2023-12-28T05:28:05;2.77;;;2.10;;
3747;SDS011;1889;50.058;8.688;2023-12-28T05:30:35;1.82;;;1.70;;
3747;SDS011;1889;50.058;8.688;2023-12-28T05:33:05;2.50;;;2.30;;
3747;SDS011;1889;50.058;8.688;2023-12-28T05:35:34;6.22;;;2.33;;
3747;SDS011;1889;50.058;8.688;2023-12-28T05:38:03;2.37;;;2.10;;
3747;SDS011;1889;50.058;8.688;2023-12-28T05:40:32;3.22;;;2.37;;
3747;SDS011;1889;50.058;8.688;2023-12-28T05:43:02;2.37;;;2.17;;
3747;SDS011;1889;50.058;8.688;2023-12-28T05:45:31;2.92;;;2.40;;
3747;SDS011;1889;50.058;8.688;2023-12-28T05:48:00;3.72;;;2.30;;
3747;SDS011;1889;50.058;8.688;2023-12-28T05:50:30;3.05;;;2.00;;
3747;SDS011;1889;50.058;8.688;2023-12-28T05:52:59;4.20;;;2.40;;
3747;SDS011;1889;50.058;8.688;2023-12-28T05:55:30;3.62;;;2.15;;
3747;SDS011;1889;50.058;8.688;2023-12-28T05:57:59;2.58;;;2.37;;
3747;SDS011;1889;50.058;8.688;2023-12-28T06:00:28;3.58;;;2.40;;
3747;SDS011;1889;50.058;8.688;2023-12-28T06:02:57;4.37;;;2.60;;
3747;SDS011;1889;50.058;8.688;2023-12-28T06:05:27;3.20;;;2.20;;
3747;SDS011;1889;50.058;8.688;2023-12-28T06:07:56;2.62;;;2.40;;
3747;SDS011;1889;50.058;8.688;2023-12-28T06:10:26;2.80;;;2.20;;
3747;SDS011;1889;50.058;8.688;2023-12-28T06:12:55;2.50;;;2.30;;
3747;SDS011;1889;50.058;8.688;2023-12-28T06:15:24;2.83;;;1.95;;
3747;SDS011;1889;50.058;8.688;2023-12-28T06:17:53;3.12;;;1.95;;
3747;SDS011;1889;50.058;8.688;2023-12-28T06:20:23;2.92;;;2.27;;
3747;SDS011;1889;50.058;8.688;2023-12-28T06:22:52;2.80;;;2.40;;
3747;SDS011;1889;50.058;8.688;2023-12-28T06:25:21;3.40;;;2.33;;
3747;SDS011;1889;50.058;8.688;2023-12-28T06:27:51;3.92;;;2.30;;
3747;SDS011;1889;50.058;8.688;2023-12-28T06:30:20;2.55;;;1.98;;
3747;SDS011;1889;50.058;8.688;2023-12-28T06:32:49;2.52;;;1.90;;
3747;SDS011;1889;50.058;8.688;2023-12-28T06:35:19;2.42;;;2.17;;
3747;SDS011;1889;50.058;8.688;2023-12-28T06:37:48;2.40;;;2.20;;
3747;SDS011;1889;50.058;8.688;2023-12-28T06:40:17;2.30;;;2.10;;
3747;SDS011;1889;50.058;8.688;2023-12-28T06:42:47;2.47;;;2.02;;
3747;SDS011;1889;50.058;8.688;2023-12-28T06:45:16;2.87;;;2.00;;
3747;SDS011;1889;50.058;8.688;2023-12-28T06:47:45;2.10;;;1.70;;
3747;SDS011;1889;50.058;8.688;2023-12-28T06:50:14;2.05;;;1.85;;
3747;SDS011;1889;50.058;8.688;2023-12-28T06:52:44;4.47;;;1.82;;
3747;SDS011;1889;50.058;8.688;2023-12-28T06:55:13;3.90;;;1.90;;
3747;SDS011;1889;50.058;8.688;2023-12-28T06:57:42;2.50;;;1.62;;
3747;SDS011;1889;50.058;8.688;2023-12-28T07:00:12;2.55;;;1.50;;
3747;SDS011;1889;50.058;8.688;2023-12-28T07:02:42;2.30;;;1.72;;
3747;SDS011;1889;50.058;8.688;2023-12-28T07:05:11;2.10;;;1.90;;
3747;SDS011;1889;50.058;8.688;2023-12-28T07:07:41;2.10;;;1.60;;
3747;SDS011;1889;50.058;8.688;2023-12-28T07:10:10;1.90;;;1.70;;
3747;SDS011;1889;50.058;8.688;2023-12-28T07:12:39;2.17;;;1.50;;
3747;SDS011;1889;50.058;8.688;2023-12-28T07:15:09;2.02;;;1.60;;
3747;SDS011;1889;50.058;8.688;2023-12-28T07:17:40;1.70;;;1.60;;
3747;SDS011;1889;50.058;8.688;2023-12-28T07:20:10;2.47;;;1.60;;
3747;SDS011;1889;50.058;8.688;2023-12-28T07:22:39;1.80;;;1.70;;
3747;SDS011;1889;50.058;8.688;2023-12-28T07:25:08;2.00;;;1.82;;
3747;SDS011;1889;50.058;8.688;2023-12-28T07:27:38;1.47;;;1.37;;
3747;SDS011;1889;50.058;8.688;2023-12-28T07:30:08;1.80;;;1.65;;
3747;SDS011;1889;50.058;8.688;2023-12-28T07:32:38;1.60;;;1.50;;
3747;SDS011;1889;50.058;8.688;2023-12-28T07:35:07;1.92;;;1.72;;
3747;SDS011;1889;50.058;8.688;2023-12-28T07:37:37;2.22;;;1.90;;
3747;SDS011;1889;50.058;8.688;2023-12-28T07:40:06;1.50;;;1.40;;
3747;SDS011;1889;50.058;8.688;2023-12-28T07:42:36;1.90;;;1.70;;
3747;SDS011;1889;50.058;8.688;2023-12-28T07:45:05;2.75;;;1.95;;
3747;SDS011;1889;50.058;8.688;2023-12-28T07:47:35;1.92;;;1.72;;
3747;SDS011;1889;50.058;8.688;2023-12-28T07:50:04;3.35;;;2.08;;
3747;SDS011;1889;50.058;8.688;2023-12-28T07:52:34;1.85;;;1.50;;
3747;SDS011;1889;50.058;8.688;2023-12-28T07:55:05;2.98;;;1.75;;
3747;SDS011;1889;50.058;8.688;2023-12-28T07:57:34;2.67;;;1.80;;
3747;SDS011;1889;50.058;8.688;2023-12-28T08:00:04;2.47;;;1.95;;
3747;SDS011;1889;50.058;8.688;2023-12-28T08:02:34;1.95;;;1.85;;
3747;SDS011;1889;50.058;8.688;2023-12-28T08:05:04;1.90;;;1.80;;
3747;SDS011;1889;50.058;8.688;2023-12-28T08:07:33;2.33;;;1.85;;
3747;SDS011;1889;50.058;8.688;2023-12-28T08:10:03;4.12;;;1.90;;
3747;SDS011;1889;50.058;8.688;2023-12-28T08:12:33;3.30;;;1.82;;
3747;SDS011;1889;50.058;8.688;2023-12-28T08:15:02;2.83;;;2.20;;
3747;SDS011;1889;50.058;8.688;2023-12-28T08:17:32;3.35;;;2.00;;
3747;SDS011;1889;50.058;8.688;2023-12-28T08:20:01;2.15;;;1.87;;
3747;SDS011;1889;50.058;8.688;2023-12-28T08:22:30;2.45;;;1.90;;
3747;SDS011;1889;50.058;8.688;2023-12-28T08:25:00;3.37;;;1.95;;
3747;SDS011;1889;50.058;8.688;2023-12-28T08:27:29;3.37;;;2.10;;
3747;SDS011;1889;50.058;8.688;2023-12-28T08:29:58;2.72;;;2.17;;
3747;SDS011;1889;50.058;8.688;2023-12-28T08:32:28;2.00;;;1.85;;
3747;SDS011;1889;50.058;8.688;2023-12-28T08:34:57;2.65;;;2.05;;
3747;SDS011;1889;50.058;8.688;2023-12-28T08:37:27;3.20;;;2.40;;
3747;SDS011;1889;50.058;8.688;2023-12-28T08:39:56;2.85;;;2.08;;
3747;SDS011;1889;50.058;8.688;2023-12-28T08:42:25;3.15;;;2.10;;
3747;SDS011;1889;50.058;8.688;2023-12-28T08:44:55;1.72;;;1.62;;
3747;SDS011;1889;50.058;8.688;2023-12-28T08:47:24;2.25;;;2.05;;
3747;SDS011;1889;50.058;8.688;2023-12-28T08:49:53;5.05;;;2.60;;
3747;SDS011;1889;50.058;8.688;2023-12-28T08:52:22;3.80;;;2.17;;
3747;SDS011;1889;50.058;8.688;2023-12-28T08:54:52;3.30;;;2.42;;
3747;SDS011;1889;50.058;8.688;2023-12-28T08:57:22;2.50;;;2.10;;
3747;SDS011;1889;50.058;8.688;2023-12-28T08:59:51;4.20;;;2.37;;
3747;SDS011;1889;50.058;8.688;2023-12-28T09:02:21;3.35;;;2.33;;
3747;SDS011;1889;50.058;8.688;2023-12-28T09:04:50;2.12;;;1.92;;
3747;SDS011;1889;50.058;8.688;2023-12-28T09:07:20;5.10;;;2.42;;
3747;SDS011;1889;50.058;8.688;2023-12-28T09:09:49;2.22;;;2.02;;
3747;SDS011;1889;50.058;8.688;2023-12-28T09:12:18;3.10;;;2.25;;
3747;SDS011;1889;50.058;8.688;2023-12-28T09:14:48;2.67;;;2.20;;
3747;SDS011;1889;50.058;8.688;2023-12-28T09:17:22;2.72;;;2.17;;
3747;SDS011;1889;50.058;8.688;2023-12-28T09:19:51;2.72;;;1.95;;
3747;SDS011;1889;50.058;8.688;2023-12-28T09:22:21;4.70;;;2.42;;
3747;SDS011;1889;50.058;8.688;2023-12-28T09:24:50;3.12;;;2.10;;
3747;SDS011;1889;50.058;8.688;2023-12-28T09:27:20;3.45;;;1.95;;
3747;SDS011;1889;50.058;8.688;2023-12-28T09:29:49;2.37;;;1.90;;
3747;SDS011;1889;50.058;8.688;2023-12-28T09:32:18;2.65;;;1.87;;
3747;SDS011;1889;50.058;8.688;2023-12-28T09:34:47;2.62;;;2.10;;
3747;SDS011;1889;50.058;8.688;2023-12-28T09:37:17;2.47;;;2.10;;
3747;SDS011;1889;50.058;8.688;2023-12-28T09:39:46;3.72;;;2.15;;
3747;SDS011;1889;50.058;8.688;2023-12-28T09:42:22;4.03;;;2.00;;
3747;SDS011;1889;50.058;8.688;2023-12-28T09:44:48;3.30;;;2.02;;
3747;SDS011;1889;50.058;8.688;2023-12-28T09:47:17;2.60;;;1.92;;
3747;SDS011;1889;50.058;8.688;2023-12-28T09:49:47;3.60;;;2.15;;
3747;SDS011;1889;50.058;8.688;2023-12-28T09:52:17;4.42;;;2.00;;
3747;SDS011;1889;50.058;8.688;2023-12-28T09:54:46;3.98;;;2.22;;
3747;SDS011;1889;50.058;8.688;2023-12-28T09:57:15;2.55;;;2.20;;
3747;SDS011;1889;50.058;8.688;2023-12-28T09:59:45;2.40;;;2.20;;
3747;SDS011;1889;50.058;8.688;2023-12-28T10:02:14;2.33;;;1.77;;
3747;SDS011;1889;50.058;8.688;2023-12-28T10:04:44;3.15;;;2.17;;
3747;SDS011;1889;50.058;8.688;2023-12-28T10:07:13;2.55;;;2.08;;
3747;SDS011;1889;50.058;8.688;2023-12-28T10:09:42;3.87;;;2.02;;
3747;SDS011;1889;50.058;8.688;2023-12-28T10:12:12;2.35;;;1.77;;
3747;SDS011;1889;50.058;8.688;2023-12-28T10:14:43;8.00;;;1.90;;
3747;SDS011;1889;50.058;8.688;2023-12-28T10:17:12;3.75;;;1.50;;
3747;SDS011;1889;50.058;8.688;2023-12-28T10:19:41;2.75;;;1.70;;
3747;SDS011;1889;50.058;8.688;2023-12-28T10:22:13;3.10;;;2.10;;
3747;SDS011;1889;50.058;8.688;2023-12-28T10:24:42;2.00;;;1.62;;
3747;SDS011;1889;50.058;8.688;2023-12-28T10:27:15;2.27;;;1.95;;
3747;SDS011;1889;50.058;8.688;2023-12-28T10:29:45;1.72;;;1.60;;
3747;SDS011;1889;50.058;8.688;2023-12-28T10:32:14;3.90;;;2.12;;
3747;SDS011;1889;50.058;8.688;2023-12-28T10:34:44;2.35;;;1.75;;
3747;SDS011;1889;50.058;8.688;2023-12-28T10:37:13;3.20;;;1.87;;
3747;SDS011;1889;50.058;8.688;2023-12-28T10:39:46;3.02;;;1.85;;
3747;SDS011;1889;50.058;8.688;2023-12-28T10:45:04;1.80;;;1.70;;
3747;SDS011;1889;50.058;8.688;2023-12-28T10:47:43;2.00;;;1.80;;
3747;SDS011;1889;50.058;8.688;2023-12-28T10:50:06;3.35;;;1.98;;
3747;SDS011;1889;50.058;8.688;2023-12-28T10:52:39;1.80;;;1.65;;
3747;SDS011;1889;50.058;8.688;2023-12-28T11:00:30;1.85;;;1.75;;
3747;SDS011;1889;50.058;8.688;2023-12-28T11:03:02;4.72;;;2.10;;
3747;SDS011;1889;50.058;8.688;2023-12-28T11:05:32;2.92;;;2.00;;
3747;SDS011;1889;50.058;8.688;2023-12-28T11:08:02;3.00;;;1.90;;
3747;SDS011;1889;50.058;8.688;2023-12-28T11:10:33;3.62;;;2.10;;
3747;SDS011;1889;50.058;8.688;2023-12-28T11:13:04;2.20;;;2.00;;
3747;SDS011;1889;50.058;8.688;2023-12-28T11:15:34;4.03;;;2.42;;
3747;SDS011;1889;50.058;8.688;2023-12-28T11:18:06;4.85;;;1.92;;
3747;SDS011;1889;50.058;8.688;2023-12-28T11:20:35;3.90;;;2.08;;
3747;SDS011;1889;50.058;8.688;2023-12-28T11:23:05;2.25;;;1.80;;
3747;SDS011;1889;50.058;8.688;2023-12-28T11:25:36;5.08;;;1.80;;
3747;SDS011;1889;50.058;8.688;2023-12-28T11:28:08;4.03;;;1.80;;
3747;SDS011;1889;50.058;8.688;2023-12-28T11:30:39;3.30;;;2.00;;
3747;SDS011;1889;50.058;8.688;2023-12-28T11:33:14;2.05;;;1.75;;
3747;SDS011;1889;50.058;8.688;2023-12-28T11:35:44;2.67;;;1.72;;
3747;SDS011;1889;50.058;8.688;2023-12-28T11:38:15;6.03;;;2.33;;
3747;SDS011;1889;50.058;8.688;2023-12-28T11:40:46;3.58;;;1.92;;
3747;SDS011;1889;50.058;8.688;2023-12-28T11:43:20;2.22;;;1.82;;
3747;SDS011;1889;50.058;8.688;2023-12-28T11:45:50;2.80;;;1.90;;
3747;SDS011;1889;50.058;8.688;2023-12-28T11:48:22;2.33;;;1.77;;
3747;SDS011;1889;50.058;8.688;2023-12-28T11:50:56;2.70;;;1.85;;
3747;SDS011;1889;50.058;8.688;2023-12-28T11:53:27;3.33;;;2.17;;
3747;SDS011;1889;50.058;8.688;2023-12-28T11:56:00;2.75;;;1.72;;
3747;SDS011;1889;50.058;8.688;2023-12-28T11:58:30;2.45;;;1.70;;
3747;SDS011;1889;50.058;8.688;2023-12-28T12:01:02;3.75;;;2.20;;
3747;SDS011;1889;50.058;8.688;2023-12-28T12:03:31;1.70;;;1.42;;
3747;SDS011;1889;50.058;8.688;2023-12-28T12:06:00;3.15;;;1.72;;
3747;SDS011;1889;50.058;8.688;2023-12-28T12:08:30;3.05;;;1.50;;
3747;SDS011;1889;50.058;8.688;2023-12-28T12:11:00;2.95;;;1.70;;
3747;SDS011;1889;50.058;8.688;2023-12-28T12:13:31;2.58;;;1.35;;
3747;SDS011;1889;50.058;8.688;2023-12-28T12:16:00;2.47;;;1.70;;
3747;SDS011;1889;50.058;8.688;2023-12-28T12:18:32;2.27;;;1.50;;
3747;SDS011;1889;50.058;8.688;2023-12-28T12:21:02;1.65;;;1.27;;
3747;SDS011;1889;50.058;8.688;2023-12-28T12:23:33;4.40;;;1.67;;
3747;SDS011;1889;50.058;8.688;2023-12-28T12:26:04;2.77;;;1.57;;
3747;SDS011;1889;50.058;8.688;2023-12-28T12:28:34;3.65;;;1.32;;
3747;SDS011;1889;50.058;8.688;2023-12-28T12:31:03;3.15;;;1.87;;
3747;SDS011;1889;50.058;8.688;2023-12-28T12:33:33;3.02;;;1.60;;
3747;SDS011;1889;50.058;8.688;2023-12-28T12:36:02;2.85;;;1.52;;
3747;SDS011;1889;50.058;8.688;2023-12-28T12:38:33;2.35;;;1.37;;
3747;SDS011;1889;50.058;8.688;2023-12-28T12:41:02;2.42;;;1.40;;
3747;SDS011;1889;50.058;8.688;2023-12-28T12:43:32;3.05;;;1.50;;
3747;SDS011;1889;50.058;8.688;2023-12-28T12:46:01;4.45;;;1.57;;
3747;SDS011;1889;50.058;8.688;2023-12-28T12:48:32;2.72;;;1.67;;
3747;SDS011;1889;50.058;8.688;2023-12-28T12:51:04;1.77;;;1.57;;
3747;SDS011;1889;50.058;8.688;2023-12-28T12:53:34;3.58;;;1.80;;
3747;SDS011;1889;50.058;8.688;2023-12-28T12:56:04;3.27;;;1.70;;
3747;SDS011;1889;50.058;8.688;2023-12-28T12:58:35;1.87;;;1.50;;
3747;SDS011;1889;50.058;8.688;2023-12-28T13:01:04;2.70;;;1.90;;
3747;SDS011;1889;50.058;8.688;2023-12-28T13:03:33;5.17;;;1.80;;
3747;SDS011;1889;50.058;8.688;2023-12-28T13:06:05;3.33;;;2.50;;
3747;SDS011;1889;50.058;8.688;2023-12-28T13:08:35;3.15;;;2.10;;
3747;SDS011;1889;50.058;8.688;2023-12-28T13:11:04;2.42;;;1.70;;
3747;SDS011;1889;50.058;8.688;2023-12-28T13:13:37;3.75;;;2.20;;
3747;SDS011;1889;50.058;8.688;2023-12-28T13:16:06;4.62;;;2.05;;
3747;SDS011;1889;50.058;8.688;2023-12-28T13:18:35;2.15;;;1.90;;
3747;SDS011;1889;50.058;8.688;2023-12-28T13:21:05;1.87;;;1.67;;
3747;SDS011;1889;50.058;8.688;2023-12-28T13:23:34;2.65;;;1.80;;
3747;SDS011;1889;50.058;8.688;2023-12-28T13:26:03;7.17;;;2.27;;
3747;SDS011;1889;50.058;8.688;2023-12-28T13:28:33;2.42;;;2.00;;
3747;SDS011;1889;50.058;8.688;2023-12-28T13:31:02;1.82;;;1.67;;
3747;SDS011;1889;50.058;8.688;2023-12-28T13:33:31;3.72;;;2.05;;
3747;SDS011;1889;50.058;8.688;2023-12-28T13:36:01;3.10;;;1.80;;
3747;SDS011;1889;50.058;8.688;2023-12-28T13:38:30;3.52;;;2.40;;
3747;SDS011;1889;50.058;8.688;2023-12-28T13:40:59;3.52;;;2.20;;
3747;SDS011;1889;50.058;8.688;2023-12-28T13:43:29;3.52;;;1.90;;
3747;SDS011;1889;50.058;8.688;2023-12-28T13:45:58;2.52;;;2.05;;
3747;SDS011;1889;50.058;8.688;2023-12-28T13:48:28;3.30;;;1.95;;
3747;SDS011;1889;50.058;8.688;2023-12-28T13:50:58;3.55;;;2.15;;
3747;SDS011;1889;50.058;8.688;2023-12-28T13:53:27;3.37;;;2.00;;
3747;SDS011;1889;50.058;8.688;2023-12-28T13:55:56;2.08;;;1.55;;
3747;SDS011;1889;50.058;8.688;2023-12-28T13:58:26;2.45;;;1.65;;
3747;SDS011;1889;50.058;8.688;2023-12-28T14:00:55;1.62;;;1.40;;
3747;SDS011;1889;50.058;8.688;2023-12-28T14:03:25;2.72;;;1.55;;
3747;SDS011;1889;50.058;8.688;2023-12-28T14:05:54;1.25;;;1.15;;
3747;SDS011;1889;50.058;8.688;2023-12-28T14:08:23;1.60;;;1.50;;
3747;SDS011;1889;50.058;8.688;2023-12-28T14:10:53;1.75;;;1.65;;
3747;SDS011;1889;50.058;8.688;2023-12-28T14:13:22;5.17;;;2.00;;
3747;SDS011;1889;50.058;8.688;2023-12-28T14:15:52;3.10;;;2.30;;
3747;SDS011;1889;50.058;8.688;2023-12-28T14:18:21;2.90;;;2.12;;
3747;SDS011;1889;50.058;8.688;2023-12-28T14:20:50;2.67;;;2.47;;
3747;SDS011;1889;50.058;8.688;2023-12-28T14:23:20;2.55;;;2.35;;
3747;SDS011;1889;50.058;8.688;2023-12-28T14:25:50;9.28;;;2.27;;
3747;SDS011;1889;50.058;8.688;2023-12-28T14:28:21;3.42;;;2.60;;
3747;SDS011;1889;50.058;8.688;2023-12-28T14:30:53;3.30;;;2.72;;
3747;SDS011;1889;50.058;8.688;2023-12-28T14:33:23;2.95;;;2.52;;
3747;SDS011;1889;50.058;8.688;2023-12-28T14:35:53;2.80;;;2.05;;
3747;SDS011;1889;50.058;8.688;2023-12-28T14:38:22;2.58;;;2.20;;
3747;SDS011;1889;50.058;8.688;2023-12-28T14:40:51;2.00;;;1.80;;
3747;SDS011;1889;50.058;8.688;2023-12-28T14:43:21;3.67;;;1.82;;
3747;SDS011;1889;50.058;8.688;2023-12-28T14:45:50;2.67;;;1.65;;
3747;SDS011;1889;50.058;8.688;2023-12-28T14:48:20;2.72;;;1.87;;
3747;SDS011;1889;50.058;8.688;2023-12-28T14:50:49;1.50;;;1.40;;
3747;SDS011;1889;50.058;8.688;2023-12-28T14:53:19;2.62;;;1.95;;
3747;SDS011;1889;50.058;8.688;2023-12-28T14:55:50;1.60;;;1.50;;
3747;SDS011;1889;50.058;8.688;2023-12-28T14:58:19;2.27;;;1.95;;
3747;SDS011;1889;50.058;8.688;2023-12-28T15:00:49;1.50;;;1.40;;
3747;SDS011;1889;50.058;8.688;2023-12-28T15:03:19;1.50;;;1.40;;
3747;SDS011;1889;50.058;8.688;2023-12-28T15:05:48;2.15;;;2.00;;
3747;SDS011;1889;50.058;8.688;2023-12-28T15:08:19;2.00;;;1.80;;
3747;SDS011;1889;50.058;8.688;2023-12-28T15:10:50;2.25;;;1.72;;
3747;SDS011;1889;50.058;8.688;2023-12-28T15:13:20;2.12;;;1.80;;
3747;SDS011;1889;50.058;8.688;2023-12-28T15:15:49;1.92;;;1.80;;
3747;SDS011;1889;50.058;8.688;2023-12-28T15:18:19;2.20;;;2.00;;
3747;SDS011;1889;50.058;8.688;2023-12-28T15:20:49;2.20;;;2.00;;
3747;SDS011;1889;50.058;8.688;2023-12-28T15:23:18;2.27;;;1.80;;
3747;SDS011;1889;50.058;8.688;2023-12-28T15:25:48;3.00;;;1.72;;
3747;SDS011;1889;50.058;8.688;2023-12-28T15:28:17;1.98;;;1.77;;
3747;SDS011;1889;50.058;8.688;2023-12-28T15:30:48;2.10;;;1.65;;
3747;SDS011;1889;50.058;8.688;2023-12-28T15:33:17;2.22;;;2.00;;
3747;SDS011;1889;50.058;8.688;2023-12-28T15:35:46;3.67;;;2.10;;
3747;SDS011;1889;50.058;8.688;2023-12-28T15:38:16;3.20;;;1.82;;
3747;SDS011;1889;50.058;8.688;2023-12-28T15:40:47;3.35;;;2.30;;